Time;durP1;ratioP1;P1;durP2;ratioP2;P2;SDS_P1;SDS_P2;PMS_P1;PMS_P2;Temp;Humidity;BMP_temperature;BMP_pressure;BME280_temperature;BME280_humidity;BME280_pressure;Samples;Min_cycle;Max_cycle;Signal;HPM_P1;HPM_P2
2021/08/03 00:01:15;;;;;;;2.57;1.87;;;14.40;99.90;;;;;;5073561;28;20212;-62
2021/08/03 00:03:51;;;;;;;1.80;1.40;;;14.50;99.90;;;;;;5073190;28;20204;-62
2021/08/03 00:06:18;;;;;;;1.43;1.23;;;14.50;99.90;;;;;;5072916;28;20215;-62
2021/08/03 00:08:49;;;;;;;2.00;1.77;;;14.40;99.90;;;;;;5072888;28;20649;-62
2021/08/03 00:11:16;;;;;;;2.40;1.63;;;14.30;99.90;;;;;;5073096;28;20229;-62
2021/08/03 00:13:43;;;;;;;2.73;1.40;;;14.30;99.90;;;;;;5072708;28;20216;-62
2021/08/03 00:16:12;;;;;;;1.97;1.60;;;14.30;99.90;;;;;;5072922;28;20232;-62
2021/08/03 00:18:40;;;;;;;2.40;1.60;;;14.30;99.90;;;;;;5072514;28;20200;-62
2021/08/03 00:21:08;;;;;;;5.07;1.70;;;14.30;99.90;;;;;;5072457;28;20263;-63
2021/08/03 00:23:38;;;;;;;4.77;1.77;;;14.30;99.90;;;;;;5072363;28;20213;-63
2021/08/03 00:26:04;;;;;;;5.37;1.83;;;14.40;99.90;;;;;;5072535;28;20262;-63
2021/08/03 00:28:32;;;;;;;3.97;1.70;;;14.40;99.90;;;;;;5071212;28;20525;-63
2021/08/03 00:31:00;;;;;;;4.00;1.50;;;14.50;99.90;;;;;;5072343;28;20295;-62
2021/08/03 00:33:28;;;;;;;7.27;1.50;;;14.50;99.90;;;;;;5072424;28;20487;-63
2021/08/03 00:35:55;;;;;;;4.43;1.50;;;14.60;99.90;;;;;;5072452;28;20240;-60
2021/08/03 00:38:21;;;;;;;2.07;1.57;;;14.60;99.90;;;;;;5072075;28;20683;-61
2021/08/03 00:40:53;;;;;;;3.67;1.60;;;14.60;99.90;;;;;;5072221;28;20635;-61
2021/08/03 00:43:20;;;;;;;2.60;1.30;;;14.60;99.90;;;;;;5072209;28;20223;-62
2021/08/03 00:45:47;;;;;;;3.70;1.33;;;14.50;99.90;;;;;;5071721;28;20215;-62
2021/08/03 00:48:14;;;;;;;1.83;1.40;;;14.50;99.90;;;;;;5071920;28;20252;-61
2021/08/03 00:50:43;;;;;;;5.03;1.60;;;14.50;99.90;;;;;;5071854;28;20672;-62
2021/08/03 00:53:10;;;;;;;3.70;1.70;;;14.50;99.90;;;;;;5072096;28;20236;-62
2021/08/03 00:55:38;;;;;;;4.40;1.73;;;14.50;99.90;;;;;;5071668;28;20205;-62
2021/08/03 00:58:05;;;;;;;2.23;1.50;;;14.60;99.90;;;;;;5071700;28;20692;-62
2021/08/03 01:00:32;;;;;;;3.40;1.50;;;14.60;99.90;;;;;;5071673;28;20707;-62
2021/08/03 01:02:59;;;;;;;3.67;1.73;;;14.70;99.90;;;;;;5071826;28;20232;-64
2021/08/03 01:05:29;;;;;;;1.77;1.47;;;14.70;99.90;;;;;;5071567;28;20200;-62
2021/08/03 01:08:05;;;;;;;4.90;1.70;;;14.70;99.90;;;;;;5071668;28;20232;-62
2021/08/03 01:10:38;;;;;;;5.57;1.37;;;14.70;99.90;;;;;;5071526;28;20676;-62
2021/08/03 01:13:11;;;;;;;3.33;1.67;;;14.80;99.90;;;;;;5071403;28;20414;-62
2021/08/03 01:15:48;;;;;;;3.70;1.90;;;14.80;99.90;;;;;;5071504;28;20220;-61
2021/08/03 01:18:20;;;;;;;3.23;1.50;;;14.80;99.90;;;;;;5071622;28;20726;-62
2021/08/03 01:21:11;;;;;;;2.57;1.70;;;14.90;99.90;;;;;;5071663;28;20851;-62
2021/08/03 01:23:56;;;;;;;3.23;1.70;;;14.90;99.90;;;;;;5068979;28;20212;-62
2021/08/03 01:26:39;;;;;;;4.63;1.50;;;15.00;99.90;;;;;;5071463;28;20668;-62
2021/08/03 01:29:10;;;;;;;7.27;1.67;;;15.10;99.90;;;;;;5071198;28;20274;-62
2021/08/03 01:31:41;;;;;;;1.70;1.30;;;15.10;99.90;;;;;;5071132;28;20311;-62
2021/08/03 01:34:11;;;;;;;2.70;1.50;;;15.20;99.90;;;;;;5071422;28;20213;-62
2021/08/03 01:36:41;;;;;;;4.20;1.67;;;15.20;99.90;;;;;;5071354;28;20205;-61
2021/08/03 01:39:08;;;;;;;3.10;1.60;;;15.20;99.90;;;;;;5071248;28;20208;-62
2021/08/03 01:41:37;;;;;;;1.80;1.43;;;15.20;99.90;;;;;;5070647;28;20251;-62
2021/08/03 01:44:05;;;;;;;3.30;1.30;;;15.30;99.90;;;;;;5070849;28;20208;-61
2021/08/03 01:46:36;;;;;;;3.10;1.60;;;15.30;99.90;;;;;;5071204;28;20232;-62
2021/08/03 01:49:03;;;;;;;3.47;1.43;;;15.40;99.90;;;;;;5070836;28;20279;-62
2021/08/03 01:51:32;;;;;;;4.30;1.70;;;15.40;99.90;;;;;;5071034;28;20232;-62
2021/08/03 01:54:00;;;;;;;3.50;1.50;;;15.50;99.90;;;;;;5070905;28;20877;-62
2021/08/03 01:56:28;;;;;;;3.63;1.50;;;15.60;99.90;;;;;;5070998;28;20212;-62
2021/08/03 01:58:55;;;;;;;2.63;1.57;;;15.70;99.90;;;;;;5070732;28;20204;-62
2021/08/03 02:01:22;;;;;;;1.80;1.30;;;15.70;99.90;;;;;;5070943;28;20406;-62
2021/08/03 02:03:51;;;;;;;2.27;1.43;;;15.80;99.90;;;;;;5070829;28;20645;-62
2021/08/03 02:06:19;;;;;;;1.57;1.40;;;15.80;99.90;;;;;;5070990;28;20209;-62
2021/08/03 02:08:48;;;;;;;2.03;1.50;;;15.70;99.90;;;;;;5070754;28;20286;-62
2021/08/03 02:11:15;;;;;;;3.00;1.70;;;15.60;99.90;;;;;;5071092;28;20773;-62
2021/08/03 02:13:44;;;;;;;4.43;1.40;;;15.50;99.90;;;;;;5070939;28;20209;-62
2021/08/03 02:16:11;;;;;;;1.90;1.57;;;15.40;99.90;;;;;;5070588;28;20208;-62
2021/08/03 02:18:38;;;;;;;3.40;1.40;;;15.30;99.90;;;;;;5070496;28;20205;-62
2021/08/03 02:21:06;;;;;;;4.27;1.50;;;15.20;99.90;;;;;;5070703;28;20583;-62
2021/08/03 02:23:33;;;;;;;2.77;1.37;;;15.10;99.90;;;;;;5070591;28;20209;-62
2021/08/03 02:25:59;;;;;;;3.17;1.43;;;15.00;99.90;;;;;;5070965;28;20675;-62
2021/08/03 02:28:26;;;;;;;2.40;1.60;;;14.90;99.90;;;;;;5070976;28;20225;-62
2021/08/03 02:30:56;;;;;;;2.30;1.43;;;14.90;99.90;;;;;;5071104;28;20204;-62
2021/08/03 02:33:25;;;;;;;3.73;1.50;;;14.80;99.90;;;;;;5071288;28;20200;-62
2021/08/03 02:35:57;;;;;;;2.17;1.40;;;14.80;99.90;;;;;;5071061;28;20208;-62
2021/08/03 02:38:28;;;;;;;1.83;1.40;;;14.70;99.90;;;;;;5070619;28;20201;-62
2021/08/03 02:40:55;;;;;;;3.43;1.43;;;14.50;99.90;;;;;;5070918;28;20228;-62
2021/08/03 02:43:28;;;;;;;1.70;1.30;;;14.40;99.90;;;;;;5070486;28;20201;-63
2021/08/03 02:45:58;;;;;;;1.50;1.30;;;14.30;99.90;;;;;;5070222;28;20211;-60
2021/08/03 02:48:26;;;;;;;4.23;1.70;;;14.10;99.90;;;;;;5070595;28;20221;-61
2021/08/03 02:50:53;;;;;;;1.33;1.23;;;14.20;99.90;;;;;;5070212;28;20205;-61
2021/08/03 02:53:28;;;;;;;2.37;1.50;;;14.20;99.90;;;;;;5073422;28;20291;-61
2021/08/03 02:55:59;;;;;;;2.33;1.70;;;14.20;99.90;;;;;;5074015;28;20214;-63
2021/08/03 02:58:29;;;;;;;2.27;1.30;;;14.30;99.90;;;;;;5074000;28;20205;-61
2021/08/03 03:00:57;;;;;;;2.27;1.40;;;14.40;99.90;;;;;;5074521;28;20200;-61
2021/08/03 03:03:26;;;;;;;1.90;1.60;;;14.40;99.90;;;;;;5073780;28;20291;-61
2021/08/03 03:05:58;;;;;;;4.03;1.47;;;14.40;99.90;;;;;;5074008;28;20205;-61
2021/08/03 03:08:28;;;;;;;1.77;1.60;;;14.40;99.90;;;;;;5073721;28;20232;-61
2021/08/03 03:10:59;;;;;;;3.17;1.60;;;14.40;99.90;;;;;;5073847;28;20263;-60
2021/08/03 03:13:32;;;;;;;3.97;1.60;;;14.40;99.90;;;;;;5073615;28;20304;-60
2021/08/03 03:16:00;;;;;;;3.60;1.50;;;14.40;99.90;;;;;;5074216;28;20216;-61
2021/08/03 03:18:27;;;;;;;5.13;2.20;;;14.40;99.90;;;;;;5073862;28;20204;-61
2021/08/03 03:20:54;;;;;;;4.23;1.57;;;14.40;99.90;;;;;;5073673;28;20205;-61
2021/08/03 03:23:23;;;;;;;3.13;1.50;;;14.50;99.90;;;;;;5073631;28;20208;-61
2021/08/03 03:25:51;;;;;;;3.77;1.83;;;14.50;99.90;;;;;;5073553;28;20201;-61
2021/08/03 03:28:25;;;;;;;2.67;1.40;;;14.60;99.90;;;;;;5073425;28;20204;-61
2021/08/03 03:30:53;;;;;;;2.23;1.50;;;14.60;99.90;;;;;;5073818;28;20215;-61
2021/08/03 03:33:20;;;;;;;2.50;1.40;;;14.80;99.90;;;;;;5073557;28;20207;-61
2021/08/03 03:35:50;;;;;;;1.80;1.50;;;14.80;99.90;;;;;;5073529;28;20646;-61
2021/08/03 03:38:19;;;;;;;1.50;1.40;;;14.80;99.90;;;;;;5073570;28;20205;-61
2021/08/03 03:40:48;;;;;;;1.93;1.50;;;14.90;99.90;;;;;;5073457;28;20672;-61
2021/08/03 03:43:17;;;;;;;3.60;1.40;;;14.90;99.90;;;;;;5073531;28;20290;-61
2021/08/03 03:45:49;;;;;;;2.30;1.87;;;14.80;99.90;;;;;;5073436;28;20212;-60
2021/08/03 03:48:21;;;;;;;2.60;2.37;;;14.60;99.90;;;;;;5073475;28;20208;-61
2021/08/03 03:50:51;;;;;;;2.33;2.00;;;14.70;99.90;;;;;;5073254;28;20209;-62
2021/08/03 03:53:21;;;;;;;5.03;1.93;;;14.60;99.90;;;;;;5072994;28;20229;-60
2021/08/03 03:55:50;;;;;;;4.93;1.97;;;14.70;99.90;;;;;;5072901;28;20213;-61
2021/08/03 03:58:19;;;;;;;3.50;1.90;;;14.70;99.90;;;;;;5072880;28;20330;-61
2021/08/03 04:00:48;;;;;;;4.77;2.13;;;14.70;99.90;;;;;;5072966;28;20204;-61
2021/08/03 04:03:18;;;;;;;6.83;3.37;;;14.70;99.90;;;;;;5072615;28;20605;-61
2021/08/03 04:05:45;;;;;;;2.97;1.90;;;14.80;99.90;;;;;;5073036;28;20201;-62
2021/08/03 04:08:12;;;;;;;2.30;2.00;;;14.80;99.90;;;;;;5072553;28;20205;-61
2021/08/03 04:10:40;;;;;;;3.43;1.63;;;14.80;99.90;;;;;;5072798;28;20281;-62
2021/08/03 04:13:08;;;;;;;2.47;1.80;;;14.70;99.90;;;;;;5072613;28;20228;-62
2021/08/03 04:15:35;;;;;;;6.70;1.63;;;14.60;99.90;;;;;;5072572;28;20201;-61
2021/08/03 04:18:03;;;;;;;3.30;1.80;;;14.60;99.90;;;;;;5072604;28;20664;-61
2021/08/03 04:20:30;;;;;;;1.63;1.40;;;14.70;99.90;;;;;;5072363;28;20212;-61
2021/08/03 04:22:57;;;;;;;4.33;1.70;;;14.70;99.90;;;;;;5072566;28;20270;-62
2021/08/03 04:25:23;;;;;;;6.70;1.40;;;14.70;99.90;;;;;;5072654;28;20208;-60
2021/08/03 04:27:51;;;;;;;2.47;1.60;;;14.70;99.90;;;;;;5072052;28;20262;-61
2021/08/03 04:30:18;;;;;;;1.60;1.40;;;14.70;99.90;;;;;;5072385;28;20252;-61
2021/08/03 04:32:45;;;;;;;3.23;1.40;;;14.70;99.90;;;;;;5072116;28;20221;-61
2021/08/03 04:35:13;;;;;;;2.40;1.70;;;14.70;99.90;;;;;;5072360;28;20208;-61
2021/08/03 04:37:41;;;;;;;3.37;1.87;;;14.80;99.90;;;;;;5072481;28;20254;-61
2021/08/03 04:40:09;;;;;;;4.00;1.77;;;14.80;99.90;;;;;;5072630;28;20200;-61
2021/08/03 04:42:36;;;;;;;2.37;1.50;;;14.90;99.90;;;;;;5071930;28;20232;-61
2021/08/03 04:45:04;;;;;;;4.27;1.50;;;14.90;99.90;;;;;;5072230;28;20204;-63
2021/08/03 04:47:32;;;;;;;2.80;1.50;;;15.00;99.90;;;;;;5071967;28;20204;-61
2021/08/03 04:49:59;;;;;;;3.93;1.50;;;15.00;99.90;;;;;;5071894;28;20282;-60
2021/08/03 04:52:27;;;;;;;2.70;1.53;;;15.10;99.90;;;;;;5071652;28;20274;-61
2021/08/03 04:54:54;;;;;;;1.70;1.30;;;15.20;99.90;;;;;;5071751;28;20580;-63
2021/08/03 04:57:21;;;;;;;3.70;1.50;;;15.30;99.90;;;;;;5071833;28;20205;-62
2021/08/03 04:59:47;;;;;;;3.00;1.50;;;15.40;99.90;;;;;;5071569;28;20211;-63
2021/08/03 05:02:14;;;;;;;1.97;1.37;;;15.40;99.90;;;;;;5071386;28;20235;-63
2021/08/03 05:04:40;;;;;;;2.60;1.50;;;15.30;99.90;;;;;;5071572;28;20216;-62
2021/08/03 05:07:07;;;;;;;2.30;1.27;;;15.30;99.90;;;;;;5072026;28;20201;-62
2021/08/03 05:09:35;;;;;;;1.97;1.30;;;15.40;99.90;;;;;;5071240;28;20700;-62
2021/08/03 05:12:02;;;;;;;2.80;1.30;;;15.40;99.90;;;;;;5071209;28;20645;-62
2021/08/03 05:14:29;;;;;;;3.60;1.23;;;15.40;99.90;;;;;;5070659;28;20212;-62
2021/08/03 05:16:56;;;;;;;3.73;1.17;;;15.50;99.90;;;;;;5071354;28;20213;-63
2021/08/03 05:19:22;;;;;;;1.80;1.33;;;15.70;99.90;;;;;;5071318;28;20695;-62
2021/08/03 05:21:49;;;;;;;3.10;1.30;;;15.90;99.90;;;;;;5071218;28;21001;-62
2021/08/03 05:24:16;;;;;;;2.37;1.63;;;16.00;99.90;;;;;;5071218;28;20291;-63
2021/08/03 05:26:44;;;;;;;2.27;1.50;;;16.20;99.90;;;;;;5071333;28;20258;-61
2021/08/03 05:29:10;;;;;;;2.97;1.50;;;16.40;99.90;;;;;;5070930;28;20247;-62
2021/08/03 05:31:37;;;;;;;2.03;1.17;;;16.50;99.90;;;;;;5071243;28;20228;-63
2021/08/03 05:34:04;;;;;;;1.83;1.33;;;16.70;99.90;;;;;;5071042;28;20200;-63
2021/08/03 05:36:31;;;;;;;2.27;1.20;;;16.80;99.90;;;;;;5071559;28;20205;-62
2021/08/03 05:38:57;;;;;;;2.77;1.30;;;16.80;99.90;;;;;;5071107;28;20724;-62
2021/08/03 05:41:24;;;;;;;3.33;1.20;;;16.70;99.90;;;;;;5071129;28;20237;-63
2021/08/03 05:43:52;;;;;;;2.10;1.30;;;16.60;99.90;;;;;;5070667;28;20278;-62
2021/08/03 05:46:19;;;;;;;2.93;1.30;;;16.60;99.90;;;;;;5071205;28;20209;-62
2021/08/03 05:48:45;;;;;;;4.20;1.47;;;16.60;99.90;;;;;;5070861;28;20212;-61
2021/08/03 05:51:12;;;;;;;2.47;1.13;;;16.70;99.90;;;;;;5070686;28;20236;-62
2021/08/03 05:53:39;;;;;;;1.40;1.20;;;16.60;99.90;;;;;;5070803;28;20201;-62
2021/08/03 05:56:06;;;;;;;3.03;1.27;;;16.50;99.90;;;;;;5070749;28;20312;-62
2021/08/03 05:58:33;;;;;;;2.60;1.40;;;16.40;99.90;;;;;;5070695;28;20209;-62
2021/08/03 06:01:01;;;;;;;3.63;1.30;;;16.40;99.90;;;;;;5070888;28;20201;-64
2021/08/03 06:03:27;;;;;;;1.17;1.00;;;16.30;99.90;;;;;;5070716;28;20201;-64
2021/08/03 06:05:54;;;;;;;1.87;1.20;;;16.20;99.90;;;;;;5071062;28;20201;-62
2021/08/03 06:08:25;;;;;;;3.63;1.30;;;16.20;99.90;;;;;;5071184;28;20208;-60
2021/08/03 06:10:53;;;;;;;1.57;1.23;;;16.40;99.90;;;;;;5070813;28;20753;-62
2021/08/03 06:13:23;;;;;;;1.77;1.50;;;16.80;99.90;;;;;;5071167;28;20236;-64
2021/08/03 06:15:51;;;;;;;1.20;1.10;;;17.00;99.90;;;;;;5070961;28;20258;-64
2021/08/03 06:18:28;;;;;;;4.72;3.65;;;17.10;99.90;;;;;;5070740;28;20676;-64
2021/08/03 06:20:55;;;;;;;1.95;1.73;;;17.30;99.90;;;;;;5071574;28;20673;-64
2021/08/03 06:23:22;;;;;;;3.90;1.17;;;17.40;99.90;;;;;;5071842;28;20232;-64
2021/08/03 06:25:49;;;;;;;1.87;1.40;;;17.60;99.90;;;;;;5072845;28;20205;-64
2021/08/03 06:28:17;;;;;;;2.50;1.30;;;17.90;99.90;;;;;;5075233;28;20216;-63
2021/08/03 06:30:47;;;;;;;3.80;1.83;;;18.30;99.90;;;;;;5074227;28;20480;-63
2021/08/03 06:33:17;;;;;;;2.78;1.50;;;19.20;99.90;;;;;;5074622;28;20228;-62
2021/08/03 06:35:45;;;;;;;2.10;1.02;;;19.80;99.90;;;;;;5074301;28;20293;-62
2021/08/03 06:38:11;;;;;;;4.93;1.10;;;20.20;99.90;;;;;;5074553;28;20212;-63
2021/08/03 06:40:45;;;;;;;3.42;1.30;;;20.50;99.90;;;;;;5074620;28;20246;-63
2021/08/03 06:43:17;;;;;;;3.83;1.45;;;20.80;99.90;;;;;;5074188;28;20640;-63
2021/08/03 06:45:48;;;;;;;2.30;1.25;;;21.10;99.90;;;;;;5074251;28;20205;-63
2021/08/03 06:48:20;;;;;;;1.60;1.10;;;21.30;99.90;;;;;;5074167;28;20205;-62
2021/08/03 06:50:54;;;;;;;4.25;1.20;;;21.40;99.90;;;;;;5074361;28;20248;-62
2021/08/03 06:53:22;;;;;;;2.45;1.40;;;21.40;99.90;;;;;;5074227;28;20266;-61
2021/08/03 06:55:49;;;;;;;1.52;1.20;;;22.00;99.90;;;;;;5074085;28;20213;-62
2021/08/03 06:58:24;;;;;;;1.75;1.38;;;23.10;99.90;;;;;;5073990;28;20570;-62
2021/08/03 07:00:53;;;;;;;2.70;1.58;;;24.70;99.90;;;;;;5074001;28;20204;-62
2021/08/03 07:03:25;;;;;;;2.53;1.20;;;26.40;99.90;;;;;;5074252;28;20447;-62
2021/08/03 07:05:57;;;;;;;4.55;1.33;;;27.40;99.90;;;;;;5074144;28;20258;-62
2021/08/03 07:08:24;;;;;;;1.48;1.13;;;27.80;99.90;;;;;;5074187;28;20200;-62
2021/08/03 07:10:53;;;;;;;3.70;1.20;;;28.10;98.30;;;;;;5073872;28;20282;-62
2021/08/03 07:13:20;;;;;;;3.13;1.50;;;28.10;97.90;;;;;;5073702;28;20608;-62
2021/08/03 07:15:47;;;;;;;2.10;1.70;;;28.40;97.20;;;;;;5073966;28;20220;-62
2021/08/03 07:18:19;;;;;;;2.80;1.63;;;28.70;94.70;;;;;;5073760;28;20208;-62
2021/08/03 07:20:46;;;;;;;5.43;1.40;;;28.70;94.00;;;;;;5073931;28;20234;-62
2021/08/03 07:23:18;;;;;;;1.52;1.05;;;28.30;94.40;;;;;;5073620;28;20274;-62
2021/08/03 07:25:46;;;;;;;1.42;0.90;;;27.80;94.80;;;;;;5073526;28;20232;-62
2021/08/03 07:28:13;;;;;;;2.20;1.00;;;27.10;95.70;;;;;;5073641;28;20205;-62
2021/08/03 07:30:42;;;;;;;3.28;1.13;;;26.30;96.60;;;;;;5073679;28;20231;-62
2021/08/03 07:33:11;;;;;;;0.88;0.70;;;25.70;97.90;;;;;;5073373;28;20731;-62
2021/08/03 07:35:39;;;;;;;4.20;1.10;;;25.30;99.50;;;;;;5073455;28;20630;-62
2021/08/03 07:38:06;;;;;;;3.20;1.27;;;25.10;99.60;;;;;;5072697;28;20331;-62
2021/08/03 07:40:36;;;;;;;1.80;1.10;;;25.20;99.90;;;;;;5073688;28;20209;-62
2021/08/03 07:43:04;;;;;;;6.25;1.70;;;25.60;99.10;;;;;;5073241;28;20237;-62
2021/08/03 07:45:31;;;;;;;4.25;1.20;;;26.00;97.10;;;;;;5073186;28;20212;-62
2021/08/03 07:47:58;;;;;;;3.10;1.10;;;26.20;96.20;;;;;;5073187;28;20213;-62
2021/08/03 07:50:25;;;;;;;1.98;1.00;;;26.40;94.90;;;;;;5073201;28;20252;-62
2021/08/03 07:52:52;;;;;;;1.98;1.00;;;26.60;94.40;;;;;;5073176;28;20275;-62
2021/08/03 07:55:19;;;;;;;2.53;1.20;;;26.90;93.80;;;;;;5073066;28;20212;-62
2021/08/03 07:57:47;;;;;;;4.10;1.20;;;26.90;93.00;;;;;;5073152;28;20211;-62
2021/08/03 08:00:14;;;;;;;3.90;2.80;;;26.50;92.90;;;;;;5073083;28;20200;-62
2021/08/03 08:02:41;;;;;;;1.73;1.02;;;26.30;93.30;;;;;;5073048;28;20323;-63
2021/08/03 08:05:09;;;;;;;3.40;1.05;;;26.10;93.10;;;;;;5072797;28;20254;-62
2021/08/03 08:07:36;;;;;;;1.85;1.13;;;25.90;93.40;;;;;;5072742;28;20209;-62
2021/08/03 08:10:04;;;;;;;2.70;1.13;;;25.80;93.50;;;;;;5072827;28;20228;-62
2021/08/03 08:12:30;;;;;;;1.77;1.20;;;25.80;93.70;;;;;;5072758;28;20266;-62
2021/08/03 08:14:58;;;;;;;2.47;1.50;;;25.50;94.60;;;;;;5072648;28;20211;-62
2021/08/03 08:17:25;;;;;;;2.03;1.20;;;25.50;95.40;;;;;;5072590;28;20209;-62
2021/08/03 08:19:52;;;;;;;2.83;1.17;;;25.30;95.00;;;;;;5072240;28;20692;-62
2021/08/03 08:22:18;;;;;;;2.03;1.30;;;25.30;95.50;;;;;;5072245;28;20232;-63
2021/08/03 08:24:45;;;;;;;4.07;1.27;;;25.40;95.60;;;;;;5072365;28;20205;-62
2021/08/03 08:27:12;;;;;;;3.67;1.38;;;25.60;95.20;;;;;;5072452;28;20234;-62
2021/08/03 08:29:39;;;;;;;1.98;1.17;;;25.80;94.80;;;;;;5072084;28;20211;-62
2021/08/03 08:32:07;;;;;;;2.55;1.15;;;25.90;94.90;;;;;;5072242;28;20260;-62
2021/08/03 08:34:34;;;;;;;1.63;1.10;;;26.00;94.60;;;;;;5072051;28;20255;-62
2021/08/03 08:37:01;;;;;;;1.67;1.20;;;25.90;93.90;;;;;;5072249;28;20205;-62
2021/08/03 08:39:27;;;;;;;3.08;1.25;;;25.90;94.00;;;;;;5069469;28;20829;-67
2021/08/03 08:41:54;;;;;;;2.28;1.60;;;25.90;94.20;;;;;;5071619;28;20236;-62
2021/08/03 08:44:21;;;;;;;2.17;1.10;;;25.90;93.80;;;;;;5071698;28;20262;-64
2021/08/03 08:46:48;;;;;;;2.20;0.88;;;25.90;93.80;;;;;;5071944;28;20213;-63
2021/08/03 08:49:16;;;;;;;3.97;1.20;;;26.00;93.50;;;;;;5070918;28;20672;-63
2021/08/03 08:51:44;;;;;;;3.47;2.63;;;26.10;93.50;;;;;;5071887;28;20298;-64
2021/08/03 08:54:10;;;;;;;3.55;1.33;;;26.20;93.30;;;;;;5072241;28;20684;-62
2021/08/03 08:56:37;;;;;;;4.03;1.83;;;26.10;93.30;;;;;;5072555;28;20263;-62
2021/08/03 08:59:04;;;;;;;1.85;0.98;;;26.00;93.10;;;;;;5071877;28;20209;-62
2021/08/03 09:01:31;;;;;;;2.15;1.15;;;25.90;93.50;;;;;;5071593;28;20735;-62
2021/08/03 09:03:57;;;;;;;3.25;1.20;;;26.00;93.50;;;;;;5071805;28;20213;-64
2021/08/03 09:06:25;;;;;;;2.78;1.20;;;25.90;93.30;;;;;;5071917;28;20567;-65
2021/08/03 09:08:52;;;;;;;3.33;1.00;;;26.00;93.30;;;;;;5071651;28;20867;-65
2021/08/03 09:11:44;;;;;;;3.10;1.20;;;26.00;93.40;;;;;;5108732;27;21143;-64
2021/08/03 09:14:10;;;;;;;2.38;0.80;;;26.20;93.40;;;;;;5108943;28;20207;-66
2021/08/03 09:16:44;;;;;;;2.53;0.95;;;26.20;93.40;;;;;;5108939;28;20203;-65
2021/08/03 09:19:29;;;;;;;1.38;1.20;;;26.10;94.00;;;;;;5108598;28;20210;-64
2021/08/03 09:22:16;;;;;;;2.75;1.13;;;26.20;93.60;;;;;;5108239;28;20234;-63
2021/08/03 09:24:45;;;;;;;1.00;0.90;;;26.30;93.80;;;;;;5117820;22;20636;-60
2021/08/03 09:27:34;;;;;;;2.83;1.00;;;26.50;93.70;;;;;;5088258;28;20201;-59
2021/08/03 09:30:01;;;;;;;3.35;1.30;;;26.70;93.70;;;;;;5087955;28;20665;-58
2021/08/03 09:32:33;;;;;;;2.75;1.58;;;26.80;93.40;;;;;;5088015;28;20613;-58
2021/08/03 09:35:08;;;;;;;3.10;1.40;;;26.70;93.50;;;;;;5103801;28;20227;-60
2021/08/03 09:37:35;;;;;;;4.10;1.40;;;26.80;93.80;;;;;;5108418;28;20272;-64
2021/08/03 09:40:03;;;;;;;2.20;1.35;;;26.80;93.80;;;;;;5108270;28;20203;-61
2021/08/03 09:42:31;;;;;;;3.10;1.48;;;26.80;93.20;;;;;;5103068;28;20207;-60
2021/08/03 09:45:00;;;;;;;1.80;1.23;;;26.80;93.30;;;;;;5087146;28;20535;-61
2021/08/03 09:47:28;;;;;;;3.83;2.08;;;26.60;93.50;;;;;;5086812;28;20204;-61
2021/08/03 09:49:56;;;;;;;2.38;1.58;;;26.40;94.80;;;;;;5087622;28;20229;-61
2021/08/03 09:52:25;;;;;;;3.10;1.65;;;26.20;94.80;;;;;;5087647;28;20261;-60
2021/08/03 09:55:08;;;;;;;2.20;1.85;;;26.00;95.90;;;;;;5087298;28;20773;-59
2021/08/03 09:57:36;;;;;;;2.70;1.33;;;25.40;97.00;;;;;;5087456;28;20223;-61
2021/08/03 10:00:23;;;;;;;8.02;2.40;;;24.40;99.90;;;;;;5086984;28;20562;-60
2021/08/03 10:02:50;;;;;;;3.97;1.30;;;23.10;99.90;;;;;;5087281;28;20273;-60
2021/08/03 10:05:17;;;;;;;3.53;1.55;;;22.00;99.90;;;;;;5086969;28;20221;-60
2021/08/03 10:07:44;;;;;;;3.47;1.50;;;21.10;99.90;;;;;;5086993;28;20212;-60
2021/08/03 10:10:12;;;;;;;4.47;1.50;;;20.40;99.90;;;;;;5087069;28;20225;-65
2021/08/03 10:12:41;;;;;;;2.17;1.48;;;19.80;99.90;;;;;;5087354;28;20497;-61
2021/08/03 10:15:10;;;;;;;3.70;2.42;;;19.60;99.90;;;;;;5087331;28;20228;-61
2021/08/03 10:17:37;;;;;;;1.63;1.40;;;19.60;99.90;;;;;;5087296;28;20204;-61
2021/08/03 10:20:06;;;;;;;1.50;1.10;;;19.60;99.90;;;;;;5087088;28;20232;-61
2021/08/03 10:22:36;;;;;;;1.77;1.00;;;19.70;99.90;;;;;;5074871;28;20208;-60
2021/08/03 10:25:06;;;;;;;3.30;1.20;;;19.90;99.90;;;;;;5073226;28;20281;-60
2021/08/03 10:27:44;;;;;;;1.98;1.70;;;20.10;99.90;;;;;;5073902;28;20209;-61
2021/08/03 10:30:36;;;;;;;2.33;1.95;;;20.40;99.90;;;;;;5073025;28;20572;-61
2021/08/03 10:33:09;;;;;;;1.65;1.10;;;20.70;99.90;;;;;;5073829;28;20216;-62
2021/08/03 10:35:42;;;;;;;2.90;1.00;;;21.10;99.90;;;;;;5073508;28;20265;-61
2021/08/03 10:38:16;;;;;;;2.50;1.17;;;21.40;99.90;;;;;;5073720;28;20586;-61
2021/08/03 10:41:04;;;;;;;1.33;0.98;;;21.60;99.90;;;;;;5073569;28;20687;-61
2021/08/03 10:43:48;;;;;;;1.85;1.30;;;21.40;99.90;;;;;;5073240;28;20229;-62
2021/08/03 10:46:41;;;;;;;3.42;1.67;;;21.20;99.90;;;;;;5073574;28;20216;-61
2021/08/03 10:49:09;;;;;;;5.53;1.23;;;21.60;99.90;;;;;;5073561;28;20266;-62
2021/08/03 10:51:40;;;;;;;2.88;1.10;;;22.20;99.90;;;;;;5073412;28;20233;-62
2021/08/03 10:54:09;;;;;;;1.73;0.90;;;22.70;99.90;;;;;;5072784;28;20235;-62
2021/08/03 10:57:21;;;;;;;1.17;0.80;;;23.20;99.90;;;;;;5073168;28;20300;-61
2021/08/03 11:00:16;;;;;;;1.90;0.60;;;23.30;99.90;;;;;;5072831;28;20236;-62
2021/08/03 11:02:46;;;;;;;0.80;0.65;;;23.10;99.90;;;;;;5036909;28;20212;-60
2021/08/03 11:05:33;;;;;;;0.80;0.80;;;22.80;99.90;;;;;;5072766;28;20221;-60
2021/08/03 11:08:36;;;;;;;1.23;0.90;;;22.60;99.90;;;;;;5072731;28;20647;-62
2021/08/03 11:11:07;;;;;;;1.48;0.73;;;22.50;99.90;;;;;;5072518;28;20227;-61
2021/08/03 11:13:39;;;;;;;1.33;0.90;;;22.50;99.90;;;;;;5072708;28;20232;-63
2021/08/03 11:16:12;;;;;;;2.05;0.82;;;22.60;99.90;;;;;;5072848;28;20223;-61
2021/08/03 11:18:41;;;;;;;2.10;1.20;;;22.70;99.90;;;;;;5072610;28;20204;-61
2021/08/03 11:21:08;;;;;;;1.42;0.90;;;22.80;99.90;;;;;;5072475;28;20288;-62
2021/08/03 11:24:04;;;;;;;1.92;1.45;;;22.80;99.90;;;;;;5072147;28;20317;-60
2021/08/03 11:26:36;;;;;;;0.93;0.80;;;22.80;99.90;;;;;;5072462;28;20209;-61
2021/08/03 11:29:06;;;;;;;1.05;0.95;;;22.80;99.90;;;;;;5072460;28;20205;-62
2021/08/03 11:31:56;;;;;;;0.70;0.70;;;22.60;99.90;;;;;;5072173;28;20229;-62
2021/08/03 11:34:28;;;;;;;1.73;1.10;;;22.20;99.90;;;;;;5067020;28;20224;-61
2021/08/03 11:37:00;;;;;;;2.13;1.20;;;22.10;99.90;;;;;;5072122;28;20201;-61
2021/08/03 11:39:29;;;;;;;2.45;1.02;;;22.40;99.90;;;;;;5072080;28;20213;-61
2021/08/03 11:41:56;;;;;;;1.00;0.85;;;22.60;99.90;;;;;;5071924;28;20603;-61
2021/08/03 11:44:23;;;;;;;1.20;1.10;;;22.50;99.90;;;;;;5071832;28;20224;-61
2021/08/03 11:46:57;;;;;;;1.77;0.80;;;22.40;99.90;;;;;;5072226;28;20209;-61
2021/08/03 11:49:32;;;;;;;1.95;0.80;;;22.30;99.90;;;;;;5072072;28;20211;-62
2021/08/03 11:52:08;;;;;;;2.03;0.80;;;22.20;99.90;;;;;;5071960;28;20545;-62
2021/08/03 11:54:35;;;;;;;1.33;1.20;;;22.40;99.90;;;;;;5071433;28;20231;-62
2021/08/03 11:57:02;;;;;;;3.75;0.95;;;22.70;99.90;;;;;;5071734;28;20699;-62
2021/08/03 11:59:32;;;;;;;0.90;0.88;;;23.00;99.90;;;;;;5071771;28;20209;-62
2021/08/03 12:02:00;;;;;;;2.50;0.85;;;23.40;99.90;;;;;;5071894;28;20197;-62
2021/08/03 12:04:27;;;;;;;1.27;1.00;;;23.70;99.90;;;;;;5071737;28;20270;-62
2021/08/03 12:06:54;;;;;;;4.03;2.10;;;24.30;99.90;;;;;;5071714;28;20201;-62
2021/08/03 12:09:22;;;;;;;2.47;1.65;;;24.70;99.90;;;;;;5071542;28;20242;-62
2021/08/03 12:11:58;;;;;;;1.20;0.90;;;25.10;99.90;;;;;;5071719;28;20247;-62
2021/08/03 12:14:33;;;;;;;2.00;0.90;;;25.40;99.90;;;;;;5071350;28;20320;-62
2021/08/03 12:17:02;;;;;;;1.42;0.80;;;25.60;99.90;;;;;;5071692;28;20232;-61
2021/08/03 12:19:30;;;;;;;1.85;1.23;;;25.90;99.90;;;;;;5071081;28;20201;-62
2021/08/03 12:21:58;;;;;;;2.45;1.80;;;26.20;99.90;;;;;;5071456;28;20200;-62
2021/08/03 12:24:25;;;;;;;1.85;1.20;;;26.40;99.90;;;;;;5071055;28;20719;-62
2021/08/03 12:27:11;;;;;;;4.75;1.20;;;26.40;99.90;;;;;;5071185;28;20205;-61
2021/08/03 12:29:37;;;;;;;1.52;1.30;;;26.30;99.90;;;;;;5070941;28;20201;-61
2021/08/03 12:32:06;;;;;;;1.90;1.10;;;26.30;99.90;;;;;;5071077;28;20274;-62
2021/08/03 12:34:37;;;;;;;1.75;0.93;;;26.20;99.90;;;;;;5071367;28;20236;-61
2021/08/03 12:37:05;;;;;;;2.15;1.05;;;26.20;99.90;;;;;;5071612;28;20233;-60
2021/08/03 12:39:40;;;;;;;1.50;1.08;;;26.20;99.90;;;;;;5071579;28;20205;-61
2021/08/03 12:42:10;;;;;;;1.50;1.40;;;26.20;99.90;;;;;;5071266;28;20239;-61
2021/08/03 12:44:38;;;;;;;3.33;1.27;;;26.20;99.90;;;;;;5070663;28;20601;-61
2021/08/03 12:47:13;;;;;;;1.58;1.10;;;26.20;99.90;;;;;;5071071;28;20209;-62
2021/08/03 12:49:42;;;;;;;1.52;1.00;;;26.20;99.90;;;;;;5070981;28;20204;-61
2021/08/03 12:52:11;;;;;;;2.80;1.35;;;26.20;99.90;;;;;;5070834;28;20221;-61
2021/08/03 12:54:41;;;;;;;1.90;1.45;;;26.20;99.90;;;;;;5070539;28;20235;-60
2021/08/03 12:57:10;;;;;;;1.33;1.08;;;26.20;99.90;;;;;;5070781;28;20205;-60
2021/08/03 12:59:44;;;;;;;3.50;1.17;;;26.20;99.90;;;;;;5070824;28;20287;-60
2021/08/03 13:02:14;;;;;;;3.15;1.25;;;26.30;99.90;;;;;;5070868;28;20379;-60